Time;durP1;ratioP1;P1;durP2;ratioP2;P2;SDS_P1;SDS_P2;PMS_P1;PMS_P2;Temp;Humidity;BMP_temperature;BMP_pressure;BME280_temperature;BME280_humidity;BME280_pressure;Samples;Min_cycle;Max_cycle;Signal;HPM_P1;HPM_P2
2021/11/28 00:02:21;;;;;;;0.00;0.00;;;8.30;91.80;;;;;;4976397;28;20105;-71
2021/11/28 00:04:52;;;;;;;0.00;0.00;;;8.30;91.70;;;;;;4975028;28;20038;-72
2021/11/28 00:15:45;;;;;;;0.00;0.00;;;8.20;91.50;;;;;;4945144;28;20175;-72
2021/11/28 00:18:11;;;;;;;0.00;0.00;;;8.10;91.60;;;;;;4956920;29;20516;-71
2021/11/28 00:20:37;;;;;;;0.00;0.00;;;8.10;91.50;;;;;;4956732;28;20031;-71
2021/11/28 00:23:03;;;;;;;0.00;0.00;;;8.10;91.60;;;;;;4956704;29;20477;-72
2021/11/28 00:25:29;;;;;;;0.00;0.00;;;8.10;91.60;;;;;;4956555;28;20039;-72
2021/11/28 00:27:55;;;;;;;0.00;0.00;;;8.10;91.80;;;;;;4958334;28;20034;-71
2021/11/28 00:30:24;;;;;;;0.00;0.00;;;8.10;91.70;;;;;;4975697;28;20105;-72
2021/11/28 00:32:50;;;;;;;0.00;0.00;;;8.10;91.70;;;;;;4974852;28;20023;-72
2021/11/28 00:35:16;;;;;;;0.00;0.00;;;8.10;91.50;;;;;;4975859;28;20384;-71
2021/11/28 00:37:42;;;;;;;0.00;0.00;;;8.10;91.50;;;;;;4975486;28;20031;-72
2021/11/28 00:40:09;;;;;;;0.00;0.00;;;8.10;91.40;;;;;;4975501;28;20034;-70
2021/11/28 00:42:34;;;;;;;0.00;0.00;;;8.00;91.40;;;;;;4975356;28;20464;-72
2021/11/28 00:45:00;;;;;;;0.00;0.00;;;8.00;91.20;;;;;;4972025;28;20053;-71
2021/11/28 00:47:26;;;;;;;0.00;0.00;;;8.00;91.40;;;;;;4956299;28;20054;-72
2021/11/28 00:50:05;;;;;;;0.00;0.00;;;8.00;91.30;;;;;;4956407;28;20114;-71
2021/11/28 00:52:32;;;;;;;0.00;0.00;;;8.00;91.30;;;;;;4956420;29;20023;-71
2021/11/28 00:54:58;;;;;;;0.00;0.00;;;7.90;91.40;;;;;;4954719;29;20094;-72
2021/11/28 00:57:24;;;;;;;0.00;0.00;;;7.90;91.20;;;;;;4956313;29;20088;-72
2021/11/28 00:59:50;;;;;;;0.00;0.00;;;7.90;91.50;;;;;;4972475;28;20070;-71
2021/11/28 01:02:17;;;;;;;0.00;0.00;;;7.90;91.30;;;;;;4966754;28;20031;-72
2021/11/28 01:04:44;;;;;;;0.00;0.00;;;7.90;91.30;;;;;;4965445;28;20030;-71
2021/11/28 01:07:10;;;;;;;0.00;0.00;;;7.80;91.50;;;;;;4974148;28;20065;-71
2021/11/28 01:09:36;;;;;;;0.00;0.00;;;7.90;91.30;;;;;;4975676;28;20058;-71
2021/11/28 01:12:02;;;;;;;0.00;0.00;;;7.90;91.40;;;;;;4975270;28;20026;-72
2021/11/28 01:14:28;;;;;;;0.00;0.00;;;7.80;91.20;;;;;;4975056;28;20093;-71
2021/11/28 01:16:54;;;;;;;0.00;0.00;;;7.90;91.30;;;;;;4973295;28;20409;-71
2021/11/28 01:19:20;;;;;;;0.00;0.00;;;7.80;91.20;;;;;;4955716;28;20417;-72
2021/11/28 01:22:01;;;;;;;0.00;0.00;;;7.80;91.30;;;;;;4956047;29;20114;-71
2021/11/28 01:24:27;;;;;;;0.00;0.00;;;7.80;91.30;;;;;;4955730;28;20038;-72
2021/11/28 01:26:53;;;;;;;0.00;0.00;;;7.80;91.40;;;;;;4955788;28;20036;-71
2021/11/28 01:29:19;;;;;;;0.00;0.00;;;7.80;91.30;;;;;;4955637;29;20158;-71
2021/11/28 01:31:45;;;;;;;0.00;0.00;;;7.80;91.20;;;;;;4954552;29;20083;-71
2021/11/28 01:34:11;;;;;;;0.00;0.00;;;7.80;91.10;;;;;;4955424;28;20106;-72
2021/11/28 01:36:39;;;;;;;0.00;0.00;;;7.80;91.20;;;;;;4955126;28;20030;-71
2021/11/28 01:39:07;;;;;;;0.00;0.00;;;7.70;91.20;;;;;;4954501;28;20034;-71
2021/11/28 01:41:32;;;;;;;0.00;0.00;;;7.80;91.10;;;;;;4966883;28;20033;-72
2021/11/28 01:43:59;;;;;;;0.00;0.00;;;7.70;91.20;;;;;;4975103;28;20034;-72
2021/11/28 01:46:26;;;;;;;0.10;0.00;;;7.70;91.20;;;;;;4973238;28;20035;-71
2021/11/28 01:48:53;;;;;;;0.00;0.00;;;7.70;91.10;;;;;;4974906;28;20026;-71
2021/11/28 01:51:19;;;;;;;0.00;0.00;;;7.70;91.10;;;;;;4975026;28;20074;-71
2021/11/28 01:53:46;;;;;;;0.00;0.00;;;7.70;91.10;;;;;;4974594;28;20031;-72
2021/11/28 01:56:12;;;;;;;0.00;0.00;;;7.70;91.30;;;;;;4974861;28;20523;-72
2021/11/28 01:58:39;;;;;;;0.00;0.00;;;7.70;91.30;;;;;;4974605;28;20030;-72
2021/11/28 02:01:09;;;;;;;0.00;0.00;;;7.70;91.30;;;;;;4973728;28;20038;-71
2021/11/28 02:03:38;;;;;;;0.00;0.00;;;7.70;91.20;;;;;;4974401;28;20115;-71
2021/11/28 02:06:06;;;;;;;0.00;0.00;;;7.60;91.20;;;;;;4974282;28;20031;-72
2021/11/28 02:08:31;;;;;;;0.00;0.00;;;7.60;91.00;;;;;;4974052;28;20489;-72
2021/11/28 02:10:57;;;;;;;0.00;0.00;;;7.60;91.20;;;;;;4975005;28;20112;-72
2021/11/28 02:13:24;;;;;;;0.00;0.00;;;7.60;91.20;;;;;;4974356;28;20027;-72
2021/11/28 02:15:51;;;;;;;0.00;0.00;;;7.60;91.00;;;;;;4974092;28;20366;-72
2021/11/28 02:18:16;;;;;;;0.00;0.00;;;7.60;91.00;;;;;;4974469;28;20034;-72
2021/11/28 02:20:50;;;;;;;0.00;0.00;;;7.60;90.80;;;;;;4974308;28;20135;-70
2021/11/28 02:23:16;;;;;;;0.00;0.00;;;7.50;90.80;;;;;;4974238;28;20046;-70
2021/11/28 02:25:43;;;;;;;0.00;0.00;;;7.50;91.00;;;;;;4974080;28;20047;-71
2021/11/28 02:28:09;;;;;;;0.00;0.00;;;7.50;91.00;;;;;;4961006;28;20058;-72
2021/11/28 02:30:36;;;;;;;0.00;0.00;;;7.50;91.10;;;;;;4978115;28;20027;-72
2021/11/28 02:33:01;;;;;;;0.00;0.00;;;7.50;90.90;;;;;;4978447;28;20583;-72
2021/11/28 02:35:31;;;;;;;0.00;0.00;;;7.40;90.90;;;;;;4978042;28;20031;-71
2021/11/28 02:37:57;;;;;;;0.00;0.00;;;7.50;90.80;;;;;;4978118;28;20026;-72
2021/11/28 02:40:27;;;;;;;0.00;0.00;;;7.50;90.80;;;;;;4976709;28;20023;-71
2021/11/28 02:42:54;;;;;;;0.00;0.00;;;7.40;90.90;;;;;;4978060;28;20023;-71
2021/11/28 02:45:23;;;;;;;0.00;0.00;;;7.40;90.80;;;;;;4977423;28;20043;-71
2021/11/28 02:47:52;;;;;;;0.00;0.00;;;7.40;90.70;;;;;;4977675;28;20050;-72
2021/11/28 02:50:20;;;;;;;0.00;0.00;;;7.40;90.70;;;;;;4977768;28;20033;-72
2021/11/28 02:52:53;;;;;;;0.00;0.00;;;7.30;90.80;;;;;;4977722;28;20027;-72
2021/11/28 02:55:25;;;;;;;0.00;0.00;;;7.30;90.80;;;;;;4977590;28;20137;-71
2021/11/28 02:57:52;;;;;;;0.10;0.00;;;7.30;90.90;;;;;;4977522;28;20031;-70
2021/11/28 03:00:18;;;;;;;0.00;0.00;;;7.20;90.80;;;;;;4978034;28;20062;-71
2021/11/28 03:02:44;;;;;;;0.00;0.00;;;7.20;90.80;;;;;;4977501;28;20027;-70
2021/11/28 03:05:10;;;;;;;0.00;0.00;;;7.20;90.60;;;;;;4977678;28;20117;-72
2021/11/28 03:07:39;;;;;;;0.00;0.00;;;7.20;90.80;;;;;;4976210;28;20094;-73
2021/11/28 03:10:06;;;;;;;0.00;0.00;;;7.10;90.60;;;;;;4976920;28;20030;-71
2021/11/28 03:12:32;;;;;;;0.00;0.00;;;7.10;90.80;;;;;;4962403;28;20027;-71
2021/11/28 03:14:57;;;;;;;0.00;0.00;;;7.10;90.70;;;;;;4977370;28;20038;-71
2021/11/28 03:17:23;;;;;;;0.00;0.00;;;7.10;90.60;;;;;;4976926;28;20034;-71
2021/11/28 03:19:49;;;;;;;0.00;0.00;;;7.10;90.50;;;;;;4975984;28;20500;-71
2021/11/28 03:22:15;;;;;;;0.00;0.00;;;7.00;90.60;;;;;;4977440;28;20030;-71
2021/11/28 03:24:41;;;;;;;0.00;0.00;;;7.00;90.70;;;;;;4976726;28;20428;-72
2021/11/28 03:27:07;;;;;;;0.00;0.00;;;7.00;90.70;;;;;;4976825;28;20035;-72
2021/11/28 03:29:33;;;;;;;0.10;0.00;;;7.00;90.70;;;;;;4976754;28;20097;-72
2021/11/28 03:31:59;;;;;;;0.00;0.00;;;6.90;90.60;;;;;;4976951;28;20491;-72
2021/11/28 03:34:25;;;;;;;0.00;0.00;;;6.90;90.70;;;;;;4975825;28;20030;-71
2021/11/28 03:36:58;;;;;;;0.32;0.32;;;6.90;90.70;;;;;;4976248;28;20062;-71
2021/11/28 03:39:26;;;;;;;0.17;0.10;;;6.90;90.60;;;;;;4976582;28;20026;-71
2021/11/28 03:42:10;;;;;;;0.30;0.17;;;6.90;90.40;;;;;;4976734;28;20031;-71
2021/11/28 03:44:37;;;;;;;0.77;0.77;;;6.90;90.20;;;;;;4976866;28;20049;-71
2021/11/28 03:47:03;;;;;;;0.43;0.43;;;6.80;90.10;;;;;;4976420;28;20023;-71
2021/11/28 03:49:29;;;;;;;0.32;0.10;;;6.80;90.10;;;;;;4976695;28;20026;-71
2021/11/28 03:51:56;;;;;;;0.00;0.00;;;6.70;90.10;;;;;;4976458;28;20026;-71
2021/11/28 03:54:22;;;;;;;1.33;1.33;;;6.70;90.40;;;;;;4976821;28;20118;-72
2021/11/28 03:56:48;;;;;;;3.33;1.52;;;6.70;90.40;;;;;;4975433;28;20169;-72
2021/11/28 03:59:14;;;;;;;1.20;0.80;;;6.70;90.40;;;;;;4976451;28;20062;-72
2021/11/28 04:01:39;;;;;;;3.05;1.20;;;6.70;90.50;;;;;;4976312;28;20034;-71
2021/11/28 04:04:05;;;;;;;3.38;1.65;;;6.70;90.20;;;;;;4976539;28;20082;-71
2021/11/28 04:06:31;;;;;;;1.25;1.15;;;6.70;90.20;;;;;;4976060;28;20491;-71
2021/11/28 04:08:57;;;;;;;1.98;0.80;;;6.70;90.00;;;;;;4976158;28;20030;-72
2021/11/28 04:11:22;;;;;;;1.15;1.05;;;6.60;89.90;;;;;;4975990;28;20034;-71
2021/11/28 04:13:48;;;;;;;1.45;1.35;;;6.60;89.10;;;;;;4975928;28;20536;-71
2021/11/28 04:16:14;;;;;;;1.85;1.75;;;6.60;88.40;;;;;;4975109;28;20102;-71
2021/11/28 04:18:40;;;;;;;0.70;0.65;;;6.50;88.00;;;;;;4976104;28;20030;-71
2021/11/28 04:21:06;;;;;;;2.22;0.98;;;6.40;88.00;;;;;;4976186;28;20078;-71
2021/11/28 04:23:32;;;;;;;1.95;0.90;;;6.30;88.20;;;;;;4975892;28;20031;-72
2021/11/28 04:25:58;;;;;;;3.88;1.30;;;6.30;88.20;;;;;;4975580;28;20035;-72
2021/11/28 04:28:23;;;;;;;3.28;1.38;;;6.20;88.00;;;;;;4976167;28;20475;-72
2021/11/28 04:30:49;;;;;;;1.48;1.02;;;6.20;87.70;;;;;;4975796;28;20440;-72
2021/11/28 04:33:15;;;;;;;2.58;0.95;;;6.10;88.10;;;;;;4975670;28;20027;-71
2021/11/28 04:35:42;;;;;;;1.25;0.75;;;6.10;88.40;;;;;;4975735;28;20030;-71
2021/11/28 04:38:08;;;;;;;0.57;0.35;;;6.00;88.50;;;;;;4975803;28;20058;-71
2021/11/28 04:40:34;;;;;;;1.50;1.40;;;6.00;88.80;;;;;;4975801;28;20023;-71
2021/11/28 04:43:00;;;;;;;1.13;0.57;;;6.00;88.60;;;;;;4975558;28;20034;-71
2021/11/28 04:45:25;;;;;;;0.93;0.50;;;6.00;89.20;;;;;;4973603;28;20181;-71
2021/11/28 04:47:51;;;;;;;2.05;0.43;;;5.90;89.50;;;;;;4974367;28;20042;-72
2021/11/28 04:50:17;;;;;;;2.13;0.70;;;6.00;89.80;;;;;;4974473;28;20135;-70
2021/11/28 04:52:43;;;;;;;2.70;0.88;;;6.00;90.00;;;;;;4975340;28;20037;-71
2021/11/28 04:55:12;;;;;;;3.40;0.90;;;6.10;90.00;;;;;;4975087;28;20058;-72
2021/11/28 04:57:38;;;;;;;2.40;2.20;;;6.10;89.80;;;;;;4975307;28;20030;-72
2021/11/28 05:00:08;;;;;;;2.55;1.38;;;6.10;89.00;;;;;;4975439;28;20038;-72
2021/11/28 05:02:34;;;;;;;2.90;2.70;;;6.20;88.50;;;;;;4975001;28;20491;-72
2021/11/28 05:05:00;;;;;;;2.30;2.17;;;6.10;87.60;;;;;;4975032;28;20039;-71
2021/11/28 05:07:25;;;;;;;2.42;1.48;;;6.10;87.10;;;;;;4975240;28;20031;-71
2021/11/28 05:09:51;;;;;;;3.47;0.68;;;6.00;86.90;;;;;;4975439;28;20038;-72
2021/11/28 05:12:17;;;;;;;3.63;1.02;;;6.00;86.90;;;;;;4974974;28;20022;-71
2021/11/28 05:14:42;;;;;;;3.15;1.10;;;5.90;86.50;;;;;;4975108;28;20507;-71
2021/11/28 05:17:08;;;;;;;2.00;1.13;;;5.80;86.50;;;;;;4975282;28;20089;-71
2021/11/28 05:19:33;;;;;;;2.28;1.10;;;5.80;87.00;;;;;;4974794;28;20032;-71
2021/11/28 05:22:01;;;;;;;2.38;1.13;;;5.70;87.40;;;;;;4974653;28;20065;-70
2021/11/28 05:24:27;;;;;;;2.65;1.02;;;5.80;87.70;;;;;;4974611;28;20030;-72
2021/11/28 05:26:53;;;;;;;3.53;1.30;;;5.70;87.70;;;;;;4974682;28;20370;-72
2021/11/28 05:29:18;;;;;;;4.03;1.30;;;5.80;87.80;;;;;;4974806;28;20029;-72
2021/11/28 05:31:44;;;;;;;6.47;2.08;;;5.80;87.70;;;;;;4974916;28;20381;-72
2021/11/28 05:34:10;;;;;;;2.58;2.38;;;5.80;87.50;;;;;;4975951;28;20030;-72
2021/11/28 05:36:36;;;;;;;3.50;1.35;;;5.80;87.10;;;;;;4974208;28;20549;-71
2021/11/28 05:39:04;;;;;;;2.03;0.93;;;5.80;87.00;;;;;;4974596;28;20027;-72
2021/11/28 05:41:29;;;;;;;3.03;1.48;;;5.80;86.80;;;;;;4974889;28;20023;-73
2021/11/28 05:43:55;;;;;;;1.15;0.73;;;5.80;87.00;;;;;;4973456;28;20041;-74
2021/11/28 05:46:21;;;;;;;1.15;0.85;;;5.80;86.60;;;;;;4973398;28;20532;-73
2021/11/28 05:48:46;;;;;;;2.30;1.38;;;5.80;86.90;;;;;;4974844;28;20069;-73
2021/11/28 05:51:12;;;;;;;1.70;1.23;;;5.80;87.40;;;;;;4975199;28;20023;-70
2021/11/28 05:53:39;;;;;;;5.57;1.10;;;5.80;87.70;;;;;;4973463;28;20492;-73
2021/11/28 05:56:05;;;;;;;2.67;0.80;;;5.80;88.20;;;;;;4974641;28;20031;-73
2021/11/28 05:58:31;;;;;;;2.38;1.08;;;5.90;88.70;;;;;;4974705;28;20038;-72
2021/11/28 06:00:56;;;;;;;3.70;1.48;;;6.10;88.50;;;;;;4976816;28;20380;-72
2021/11/28 06:03:22;;;;;;;5.68;2.20;;;6.10;87.60;;;;;;4978562;28;20062;-71
2021/11/28 06:05:48;;;;;;;2.40;1.48;;;6.20;87.30;;;;;;4978254;28;20054;-72
2021/11/28 06:08:14;;;;;;;1.60;1.50;;;6.20;88.10;;;;;;4978561;28;20032;-71
2021/11/28 06:10:40;;;;;;;4.50;1.52;;;6.20;87.40;;;;;;4978591;28;20027;-72
2021/11/28 06:13:05;;;;;;;3.03;1.20;;;6.30;87.30;;;;;;4978709;28;20093;-72
2021/11/28 06:15:31;;;;;;;1.60;1.50;;;6.40;86.90;;;;;;4978424;28;20035;-71
2021/11/28 06:17:57;;;;;;;1.77;0.90;;;6.40;86.50;;;;;;4978125;28;20435;-71
2021/11/28 06:20:23;;;;;;;2.38;1.10;;;6.50;86.50;;;;;;4978462;28;20030;-72
2021/11/28 06:22:49;;;;;;;2.33;1.05;;;6.50;86.20;;;;;;4978224;28;20027;-72
2021/11/28 06:25:15;;;;;;;2.53;1.02;;;6.60;86.40;;;;;;4978208;28;20042;-72
2021/11/28 06:27:41;;;;;;;2.08;1.27;;;6.60;86.40;;;;;;4978153;28;20038;-72
2021/11/28 06:30:08;;;;;;;3.55;0.77;;;6.70;86.30;;;;;;4977949;28;20036;-72
2021/11/28 06:32:33;;;;;;;1.83;0.93;;;6.70;86.30;;;;;;4978114;28;20059;-71
2021/11/28 06:34:59;;;;;;;1.90;1.05;;;6.80;86.30;;;;;;4977548;28;20491;-72
2021/11/28 06:37:26;;;;;;;1.83;1.73;;;6.90;86.60;;;;;;4977683;28;20022;-72
2021/11/28 06:39:52;;;;;;;1.60;1.10;;;6.90;85.70;;;;;;4977596;28;20030;-72
2021/11/28 06:42:17;;;;;;;1.45;1.10;;;7.00;84.90;;;;;;4977715;28;20081;-73
2021/11/28 06:44:43;;;;;;;1.73;1.20;;;7.10;85.00;;;;;;4976363;28;20043;-72
2021/11/28 06:47:11;;;;;;;2.65;1.55;;;7.10;85.10;;;;;;4976415;28;20027;-72
2021/11/28 06:49:37;;;;;;;2.00;1.90;;;7.20;85.00;;;;;;4976830;28;20464;-72
2021/11/28 06:52:03;;;;;;;0.75;0.40;;;7.20;84.20;;;;;;4977675;28;20033;-72
2021/11/28 06:54:29;;;;;;;1.55;0.73;;;7.30;84.60;;;;;;4977484;28;20046;-71
2021/11/28 06:56:55;;;;;;;3.33;1.85;;;7.40;84.80;;;;;;4977556;28;20350;-71
2021/11/28 06:59:21;;;;;;;1.05;0.35;;;7.60;84.90;;;;;;4977700;28;20042;-72
2021/11/28 07:01:48;;;;;;;1.38;1.25;;;7.70;84.80;;;;;;4977530;28;20058;-75
2021/11/28 07:04:14;;;;;;;2.67;1.10;;;7.80;84.60;;;;;;4977056;28;20461;-71
2021/11/28 07:06:40;;;;;;;1.45;1.00;;;7.90;84.40;;;;;;4977447;28;20035;-73
2021/11/28 07:09:05;;;;;;;1.80;0.65;;;8.00;84.30;;;;;;4977666;28;20655;-71
2021/11/28 07:11:31;;;;;;;2.38;1.15;;;8.10;83.90;;;;;;4976852;28;20051;-73
2021/11/28 07:13:57;;;;;;;1.83;1.73;;;8.30;83.70;;;;;;4977121;28;20035;-72
2021/11/28 07:16:23;;;;;;;1.25;1.15;;;8.30;81.80;;;;;;4977065;28;20042;-74
2021/11/28 07:18:49;;;;;;;1.27;0.68;;;8.40;80.30;;;;;;4977304;28;20031;-73
2021/11/28 07:21:16;;;;;;;0.38;0.38;;;8.40;80.40;;;;;;4977282;28;20539;-73
2021/11/28 07:23:42;;;;;;;1.75;1.00;;;8.40;79.70;;;;;;4976934;28;20085;-72
2021/11/28 07:26:08;;;;;;;2.22;2.10;;;8.50;79.60;;;;;;4976878;28;20038;-72
2021/11/28 07:28:35;;;;;;;0.80;0.80;;;8.50;79.30;;;;;;4977002;28;20061;-69
2021/11/28 07:31:02;;;;;;;0.52;0.52;;;8.50;78.50;;;;;;4976534;28;20035;-72
2021/11/28 07:33:27;;;;;;;0.55;0.55;;;8.50;79.10;;;;;;4975642;28;20122;-72
2021/11/28 07:35:53;;;;;;;0.45;0.30;;;8.70;79.50;;;;;;4976669;28;20101;-71
2021/11/28 07:38:30;;;;;;;1.80;0.90;;;8.70;79.70;;;;;;4976601;28;20035;-73
2021/11/28 07:41:02;;;;;;;0.63;0.30;;;8.80;79.80;;;;;;4976972;28;20118;-72
2021/11/28 07:43:28;;;;;;;2.65;1.02;;;8.90;79.70;;;;;;4976635;28;20114;-75
2021/11/28 07:45:54;;;;;;;0.68;0.40;;;9.00;79.60;;;;;;4976126;28;20122;-74
2021/11/28 07:48:21;;;;;;;2.13;0.80;;;9.10;79.70;;;;;;4976095;28;20035;-73
2021/11/28 07:50:47;;;;;;;0.43;0.25;;;9.30;79.60;;;;;;4976601;28;20037;-74
2021/11/28 07:53:14;;;;;;;1.38;0.82;;;9.30;79.30;;;;;;4976549;28;20030;-73
2021/11/28 07:55:40;;;;;;;0.93;0.32;;;9.40;79.20;;;;;;4965310;28;20055;-73
2021/11/28 07:58:06;;;;;;;2.65;1.15;;;9.40;78.90;;;;;;4956871;28;20100;-74
2021/11/28 08:00:32;;;;;;;1.85;0.80;;;9.50;78.70;;;;;;4956933;28;20032;-72
2021/11/28 08:02:59;;;;;;;1.58;1.25;;;9.50;78.00;;;;;;4956767;28;20071;-72
2021/11/28 08:05:25;;;;;;;1.95;1.17;;;9.40;77.50;;;;;;4956903;28;20082;-72
2021/11/28 08:07:50;;;;;;;4.30;2.08;;;9.30;77.70;;;;;;4956586;28;20440;-73
2021/11/28 08:10:16;;;;;;;2.50;1.05;;;9.40;77.90;;;;;;4955611;29;20167;-73
2021/11/28 08:12:42;;;;;;;3.00;1.77;;;9.30;77.60;;;;;;4957011;28;20028;-73
2021/11/28 08:15:12;;;;;;;1.20;0.70;;;9.20;77.70;;;;;;4956147;28;20054;-74
2021/11/28 08:17:38;;;;;;;0.85;0.20;;;9.20;78.50;;;;;;4956829;28;20031;-73
2021/11/28 08:20:08;;;;;;;2.22;1.15;;;9.30;78.10;;;;;;4955239;29;20473;-72
2021/11/28 08:22:35;;;;;;;1.50;0.60;;;9.40;78.10;;;;;;4957034;28;20039;-72
2021/11/28 08:25:01;;;;;;;1.10;0.65;;;9.40;77.50;;;;;;4954178;28;20046;-72
2021/11/28 08:27:27;;;;;;;2.65;1.23;;;9.40;77.80;;;;;;4956452;28;20489;-72
2021/11/28 08:29:53;;;;;;;1.20;0.40;;;9.40;77.60;;;;;;4956579;28;20039;-72
2021/11/28 08:32:19;;;;;;;0.30;0.30;;;9.40;77.70;;;;;;4956536;28;20047;-72
2021/11/28 08:34:45;;;;;;;1.30;0.60;;;9.50;77.60;;;;;;4956025;28;20031;-72
2021/11/28 08:37:10;;;;;;;0.75;0.20;;;9.50;77.30;;;;;;4955584;28;20462;-72
2021/11/28 08:39:36;;;;;;;2.38;1.20;;;9.50;76.80;;;;;;4956289;28;20469;-73
2021/11/28 08:42:07;;;;;;;1.38;0.50;;;9.50;76.40;;;;;;4956454;28;20037;-73
2021/11/28 08:44:33;;;;;;;0.70;0.70;;;9.40;76.60;;;;;;4956127;28;20045;-73
2021/11/28 08:46:58;;;;;;;1.40;0.68;;;9.30;76.90;;;;;;4956403;28;20110;-73
2021/11/28 08:49:24;;;;;;;1.40;0.98;;;9.30;76.90;;;;;;4974732;28;20062;-74
2021/11/28 08:51:50;;;;;;;2.30;0.93;;;9.40;77.20;;;;;;4975204;28;20033;-72
2021/11/28 08:54:16;;;;;;;1.02;0.60;;;9.30;77.10;;;;;;4975112;28;20050;-74
2021/11/28 08:56:43;;;;;;;2.25;1.45;;;9.40;77.50;;;;;;4975546;28;20027;-72
2021/11/28 08:59:09;;;;;;;1.20;0.55;;;9.50;77.70;;;;;;4975339;28;20055;-75
2021/11/28 09:01:36;;;;;;;0.30;0.30;;;9.50;78.10;;;;;;4975709;28;20033;-75
2021/11/28 09:04:04;;;;;;;3.63;1.88;;;9.80;78.40;;;;;;4955928;28;20031;-76
2021/11/28 09:06:30;;;;;;;1.02;0.70;;;9.90;77.60;;;;;;4955012;29;20035;-74
2021/11/28 09:08:55;;;;;;;0.60;0.40;;;9.90;77.00;;;;;;4956392;28;20385;-74
2021/11/28 09:11:21;;;;;;;1.35;0.95;;;10.00;77.30;;;;;;4955672;28;20146;-75
2021/11/28 09:13:47;;;;;;;1.10;0.65;;;10.00;77.40;;;;;;4955576;28;20413;-76
2021/11/28 09:16:12;;;;;;;1.73;1.33;;;10.10;77.10;;;;;;4970650;28;20035;-74
2021/11/28 09:18:52;;;;;;;2.38;1.45;;;10.20;76.90;;;;;;4956148;28;20035;-75
2021/11/28 09:21:18;;;;;;;0.80;0.70;;;10.20;76.80;;;;;;4954662;28;20071;-75
2021/11/28 09:26:30;;;;;;;1.45;0.70;;;10.20;77.00;;;;;;4955685;29;20412;-73
2021/11/28 09:28:59;;;;;;;0.75;0.50;;;10.20;76.80;;;;;;4970608;28;20047;-75
2021/11/28 09:31:26;;;;;;;0.77;0.63;;;10.20;77.10;;;;;;4955882;28;20027;-73
2021/11/28 09:33:51;;;;;;;0.77;0.68;;;10.30;76.90;;;;;;4955695;28;20038;-72
2021/11/28 09:36:17;;;;;;;1.00;0.90;;;10.30;76.80;;;;;;4954899;28;20409;-73
2021/11/28 09:38:43;;;;;;;0.70;0.55;;;10.30;77.00;;;;;;4955779;28;20042;-73
2021/11/28 09:41:12;;;;;;;0.85;0.40;;;10.30;77.00;;;;;;4938447;29;20031;-72
2021/11/28 09:43:42;;;;;;;0.43;0.43;;;10.30;77.20;;;;;;4955759;28;20027;-74
2021/11/28 09:46:09;;;;;;;0.98;0.60;;;10.30;77.10;;;;;;4954991;28;20385;-72
2021/11/28 09:48:36;;;;;;;0.60;0.20;;;10.30;77.50;;;;;;4954141;28;20023;-72
2021/11/28 09:51:07;;;;;;;0.57;0.32;;;10.40;78.20;;;;;;4955246;28;20155;-71
2021/11/28 09:53:35;;;;;;;0.30;0.00;;;10.50;77.60;;;;;;4962453;28;20041;-72
2021/11/28 09:56:05;;;;;;;0.28;0.17;;;10.60;77.60;;;;;;4962942;28;20054;-73
2021/11/28 09:58:31;;;;;;;0.65;0.22;;;10.60;77.70;;;;;;4962230;28;20480;-73
2021/11/28 10:00:59;;;;;;;0.20;0.20;;;10.70;77.50;;;;;;4962137;28;20035;-75
2021/11/28 10:03:26;;;;;;;0.10;0.10;;;10.70;77.10;;;;;;4965151;28;20019;-76
2021/11/28 10:05:53;;;;;;;0.10;0.10;;;10.80;77.40;;;;;;4965042;28;20109;-72
2021/11/28 10:08:24;;;;;;;0.10;0.10;;;10.80;77.70;;;;;;4963255;28;20055;-74
2021/11/28 10:11:18;;;;;;;0.30;0.10;;;10.90;77.70;;;;;;4963038;28;20054;-72
2021/11/28 10:13:48;;;;;;;0.20;0.20;;;11.00;77.50;;;;;;4963660;28;20432;-71
2021/11/28 10:16:15;;;;;;;0.63;0.20;;;11.00;77.40;;;;;;4964794;28;20139;-72
2021/11/28 10:18:43;;;;;;;0.45;0.38;;;11.10;77.00;;;;;;4963693;28;20430;-72
2021/11/28 10:21:09;;;;;;;0.17;0.10;;;11.10;76.70;;;;;;4958301;28;20163;-72
2021/11/28 10:23:55;;;;;;;0.38;0.35;;;11.10;76.60;;;;;;4961775;28;20026;-72
2021/11/28 10:26:22;;;;;;;0.10;0.00;;;11.10;76.70;;;;;;4954757;29;20448;-72
2021/11/28 10:29:08;;;;;;;0.00;0.00;;;11.10;76.80;;;;;;4954914;29;20019;-73
2021/11/28 10:31:52;;;;;;;0.00;0.00;;;11.10;77.40;;;;;;4955165;29;20027;-72
2021/11/28 10:34:43;;;;;;;0.00;0.00;;;11.30;77.60;;;;;;4954515;28;20493;-72
2021/11/28 10:37:16;;;;;;;0.00;0.00;;;11.40;77.30;;;;;;4954744;29;20042;-74
2021/11/28 10:39:45;;;;;;;0.00;0.00;;;11.50;76.90;;;;;;4954831;29;20046;-71
2021/11/28 10:42:31;;;;;;;0.28;0.20;;;11.50;76.10;;;;;;4954199;28;20031;-74
2021/11/28 10:45:14;;;;;;;0.00;0.00;;;11.40;76.20;;;;;;4973548;28;20389;-71
2021/11/28 10:47:47;;;;;;;0.00;0.00;;;11.40;76.60;;;;;;4975830;28;20034;-72
2021/11/28 10:50:15;;;;;;;0.00;0.00;;;11.40;76.90;;;;;;4974578;28;20097;-72
2021/11/28 10:52:43;;;;;;;0.00;0.00;;;11.50;77.00;;;;;;4961169;28;20054;-72
2021/11/28 10:55:18;;;;;;;0.00;0.00;;;11.60;77.10;;;;;;4958582;28;20058;-72
2021/11/28 10:57:45;;;;;;;0.00;0.00;;;11.70;77.20;;;;;;4967244;28;20027;-73
2021/11/28 11:00:13;;;;;;;0.00;0.00;;;11.80;77.00;;;;;;4961969;28;20027;-74
2021/11/28 11:02:41;;;;;;;0.00;0.00;;;11.90;76.60;;;;;;4964982;28;20469;-72
2021/11/28 11:05:12;;;;;;;0.00;0.00;;;11.90;76.50;;;;;;4966650;28;20385;-74
2021/11/28 11:07:56;;;;;;;0.00;0.00;;;12.00;76.50;;;;;;4965138;28;20039;-75
2021/11/28 11:10:29;;;;;;;0.00;0.00;;;12.10;76.20;;;;;;4967250;28;20058;-72
2021/11/28 11:12:57;;;;;;;0.00;0.00;;;12.10;76.00;;;;;;4967473;28;20113;-71
2021/11/28 11:15:45;;;;;;;0.90;0.73;;;12.00;76.00;;;;;;4966848;28;20032;-73
2021/11/28 11:18:14;;;;;;;0.40;0.28;;;12.00;75.80;;;;;;4967376;28;20023;-73
2021/11/28 11:20:46;;;;;;;0.57;0.22;;;11.90;75.40;;;;;;4965752;28;20042;-72
2021/11/28 11:23:37;;;;;;;0.00;0.00;;;11.80;75.40;;;;;;4963689;28;20031;-72
2021/11/28 11:26:22;;;;;;;0.00;0.00;;;11.70;75.90;;;;;;4957431;28;20350;-72
2021/11/28 11:29:10;;;;;;;0.00;0.00;;;11.60;76.20;;;;;;4957118;29;20607;-72
2021/11/28 11:31:38;;;;;;;0.00;0.00;;;11.70;76.70;;;;;;4956140;29;20031;-72
2021/11/28 11:34:28;;;;;;;0.00;0.00;;;11.70;76.80;;;;;;4965550;28;20717;-72
2021/11/28 11:37:00;;;;;;;0.00;0.00;;;11.80;76.60;;;;;;4974123;28;20050;-72
2021/11/28 11:39:28;;;;;;;0.00;0.00;;;11.90;76.60;;;;;;4975512;28;20023;-72
2021/11/28 11:41:55;;;;;;;0.00;0.00;;;12.00;76.30;;;;;;4976791;28;20027;-72
2021/11/28 11:44:25;;;;;;;0.00;0.00;;;12.00;76.10;;;;;;4966207;28;20043;-72
2021/11/28 11:46:53;;;;;;;0.00;0.00;;;12.00;75.90;;;;;;4957140;28;20031;-72
2021/11/28 11:49:19;;;;;;;0.00;0.00;;;12.00;76.10;;;;;;4968572;28;20023;-72
2021/11/28 11:51:49;;;;;;;0.00;0.00;;;12.00;76.80;;;;;;4957652;28;20023;-72
2021/11/28 11:54:18;;;;;;;0.10;0.00;;;12.10;76.20;;;;;;4961716;28;20051;-71
2021/11/28 11:56:46;;;;;;;0.00;0.00;;;12.10;76.10;;;;;;4975905;28;20026;-72
2021/11/28 11:59:22;;;;;;;0.15;0.00;;;12.20;76.10;;;;;;4975991;28;20026;-73
2021/11/28 12:02:00;;;;;;;0.00;0.00;;;12.20;75.90;;;;;;4976028;28;20494;-72
2021/11/28 12:04:41;;;;;;;0.00;0.00;;;12.30;75.90;;;;;;4971198;28;20090;-71
2021/11/28 12:07:07;;;;;;;0.00;0.00;;;12.40;75.80;;;;;;4956920;28;20384;-72
2021/11/28 12:09:35;;;;;;;0.00;0.00;;;12.40;75.40;;;;;;4956849;28;20031;-72
2021/11/28 12:12:12;;;;;;;0.00;0.00;;;12.40;75.00;;;;;;4956019;28;20357;-71
2021/11/28 12:15:17;;;;;;;0.10;0.00;;;12.30;75.00;;;;;;4955721;28;20062;-72
2021/11/28 12:17:43;;;;;;;0.08;0.00;;;12.20;75.10;;;;;;4957521;28;20378;-72
2021/11/28 12:20:09;;;;;;;0.10;0.10;;;12.10;75.10;;;;;;4956750;28;20049;-71
2021/11/28 12:22:44;;;;;;;0.00;0.00;;;12.00;75.20;;;;;;4968749;28;20041;-72
2021/11/28 12:25:35;;;;;;;0.00;0.00;;;11.90;75.40;;;;;;4965891;28;20142;-72
2021/11/28 12:28:20;;;;;;;0.00;0.00;;;11.80;75.50;;;;;;4957023;29;20034;-71
2021/11/28 12:30:55;;;;;;;0.17;0.10;;;11.80;75.60;;;;;;4956574;28;20480;-73
2021/11/28 12:33:49;;;;;;;0.30;0.10;;;11.80;75.60;;;;;;4954908;29;20027;-72
2021/11/28 12:36:34;;;;;;;0.38;0.03;;;11.60;75.30;;;;;;4955171;28;20055;-72
2021/11/28 12:39:31;;;;;;;0.00;0.00;;;11.40;75.50;;;;;;4962087;28;20033;-72
2021/11/28 12:42:13;;;;;;;0.00;0.00;;;11.10;75.90;;;;;;4975872;28;20030;-73
2021/11/28 12:45:02;;;;;;;0.00;0.00;;;11.00;76.50;;;;;;4975622;28;20129;-73
2021/11/28 12:47:30;;;;;;;0.00;0.00;;;10.90;77.20;;;;;;4966786;28;20472;-74
2021/11/28 12:50:03;;;;;;;0.00;0.00;;;10.90;77.40;;;;;;4966544;28;20102;-71
2021/11/28 12:52:34;;;;;;;0.00;0.00;;;10.90;77.40;;;;;;4967281;28;20050;-72
2021/11/28 12:55:09;;;;;;;0.00;0.00;;;10.90;77.50;;;;;;4964656;28;20042;-72
2021/11/28 12:57:58;;;;;;;0.00;0.00;;;10.90;77.50;;;;;;4967947;28;20034;-72
2021/11/28 13:00:24;;;;;;;0.00;0.00;;;10.80;77.80;;;;;;4964277;28;20035;-71
2021/11/28 13:03:13;;;;;;;0.00;0.00;;;10.70;78.20;;;;;;4964255;28;20432;-73
2021/11/28 13:05:44;;;;;;;0.00;0.00;;;10.80;78.70;;;;;;4959752;28;20051;-75
2021/11/28 13:08:16;;;;;;;0.00;0.00;;;10.90;78.60;;;;;;4964231;28;20023;-73
2021/11/28 13:10:48;;;;;;;0.00;0.00;;;10.90;78.30;;;;;;4963566;28;20541;-73
2021/11/28 13:13:35;;;;;;;0.00;0.00;;;10.80;78.30;;;;;;4965041;28;20457;-73